Brookley Field, Alabama
Current Conditions -  °F | °C
As of 11:53 PM on Monday 26 Jan 2015 (Local Time) from KBFM Reporting Station
Clear Clear  
Wind Chill: 43°   Ceiling: Unl
Heat Index: 43°   Visibility: 10mi
Dew Point: 35°   Wind: 0mph
Humidity: 74%   Direction: NA
Pressure: 30.07"   Gusts: NA
Location:  30.641°N, 88.065°W
Report Text: KBFM 270553Z AUTO 00000KT 10SM CLR 06/02 A3007 RMK AO2 SLP182 T00610017 10100 20039 401610039 55001
Loading
Personal Weather Stations






























Interactive Weather Map New forecast layout! Learn more

10-Day Weather Forecast

Advertisements
Track Severe Weather on mobile